Time;durP1;ratioP1;P1;durP2;ratioP2;P2;SDS_P1;SDS_P2;PMS_P1;PMS_P2;Temp;Humidity;BMP_temperature;BMP_pressure;BME280_temperature;BME280_humidity;BME280_pressure;Samples;Min_cycle;Max_cycle;Signal;HPM_P1;HPM_P2
2022/10/17 00:00:29;;;;;;;5.65;4.22;;;;;;;21.48;43.02;96126.72;5022233;28;20033;-68
2022/10/17 00:02:55;;;;;;;5.85;4.22;;;;;;;21.63;43.07;96165.50;5035334;28;20029;-64
2022/10/17 00:05:21;;;;;;;5.13;4.10;;;;;;;21.77;43.07;96187.22;5025495;28;20006;-66
2022/10/17 00:07:46;;;;;;;5.20;4.32;;;;;;;21.30;43.23;96112.50;5025517;28;20034;-63
2022/10/17 00:10:12;;;;;;;5.68;4.05;;;;;;;22.05;43.20;96213.63;5007879;28;20124;-68
2022/10/17 00:12:37;;;;;;;5.47;4.00;;;;;;;21.43;43.23;96125.38;5007510;28;20041;-63
2022/10/17 00:15:04;;;;;;;6.65;4.93;;;;;;;22.04;43.14;96233.88;5026025;28;20489;-68
2022/10/17 00:17:29;;;;;;;4.95;4.20;;;;;;;21.44;43.27;96128.81;5008100;28;20570;-62
2022/10/17 00:19:55;;;;;;;5.68;4.05;;;;;;;21.60;43.02;96172.59;5006934;28;20037;-67
2022/10/17 00:22:20;;;;;;;5.72;4.03;;;;;;;21.90;43.39;96208.66;5010441;28;20483;-64
2022/10/17 00:24:46;;;;;;;5.05;4.00;;;;;;;21.51;43.08;96153.69;5025351;28;20071;-68
2022/10/17 00:27:11;;;;;;;6.00;4.00;;;;;;;21.88;43.61;96225.44;5024338;28;20044;-68
2022/10/17 00:29:37;;;;;;;5.53;4.10;;;;;;;21.35;43.37;96118.06;5025626;28;20511;-67
2022/10/17 00:32:02;;;;;;;5.68;4.38;;;;;;;21.41;43.28;96129.75;5024591;28;20471;-66
2022/10/17 00:34:28;;;;;;;5.28;3.90;;;;;;;21.02;43.22;96117.47;5015613;28;20112;-65
2022/10/17 00:36:53;;;;;;;6.07;4.10;;;;;;;21.68;43.28;96178.41;5008240;28;20048;-68
2022/10/17 00:39:19;;;;;;;5.50;4.32;;;;;;;21.92;43.48;96215.88;5012924;28;20042;-66
2022/10/17 00:41:45;;;;;;;5.70;4.30;;;;;;;21.14;43.51;96097.44;4994990;28;20030;-65
2022/10/17 00:44:28;;;;;;;5.32;4.45;;;;;;;21.97;43.27;96228.84;5003350;28;20038;-66
2022/10/17 00:46:55;;;;;;;5.82;4.20;;;;;;;20.86;43.28;96059.41;4999900;28;20056;-65
2022/10/17 00:49:20;;;;;;;5.50;4.30;;;;;;;20.64;43.08;96031.84;5005385;28;20038;-64
2022/10/17 00:51:48;;;;;;;5.13;4.30;;;;;;;21.96;43.66;96235.50;4996885;28;20037;-70
2022/10/17 00:54:14;;;;;;;6.00;4.00;;;;;;;21.80;43.18;96210.00;4991127;28;20212;-69
2022/10/17 00:56:40;;;;;;;5.22;4.10;;;;;;;21.50;43.31;96167.75;5018876;28;20128;-68
2022/10/17 00:59:07;;;;;;;5.97;4.38;;;;;;;21.38;43.22;96152.44;5021397;28;20849;-70
2022/10/17 01:01:33;;;;;;;5.97;4.13;;;;;;;21.10;43.41;96096.88;4996964;28;20053;-70
2022/10/17 01:03:58;;;;;;;5.53;4.10;;;;;;;21.94;43.46;96229.00;5014239;28;20049;-67
2022/10/17 01:06:24;;;;;;;5.53;4.28;;;;;;;21.59;43.46;96186.66;4993890;28;20129;-63
2022/10/17 01:08:49;;;;;;;4.78;3.75;;;;;;;20.24;43.33;95976.63;5021020;28;20484;-69
2022/10/17 01:11:34;;;;;;;5.40;4.28;;;;;;;21.91;43.47;96229.94;5018840;28;20025;-68
2022/10/17 01:14:29;;;;;;;5.22;3.70;;;;;;;21.32;43.45;96145.41;5037268;28;20665;-65
2022/10/17 01:17:27;;;;;;;4.82;3.60;;;;;;;21.92;43.66;96241.59;5004842;28;20045;-65
2022/10/17 01:20:07;;;;;;;6.10;4.47;;;;;;;21.91;43.67;96224.50;4983623;28;20048;-67
2022/10/17 01:22:54;;;;;;;5.20;4.15;;;;;;;21.89;43.55;96223.50;5006123;28;20042;-67
2022/10/17 01:25:26;;;;;;;5.38;4.22;;;;;;;20.62;43.38;96026.88;4988398;28;20046;-68
2022/10/17 01:28:13;;;;;;;5.20;4.13;;;;;;;21.88;43.47;96225.44;5015340;28;20049;-68
2022/10/17 01:30:50;;;;;;;6.32;4.55;;;;;;;21.87;43.69;96223.19;5008110;28;20096;-70
2022/10/17 01:33:31;;;;;;;4.80;4.05;;;;;;;21.88;43.51;96230.16;4989928;28;20045;-66
2022/10/17 01:36:18;;;;;;;5.72;4.05;;;;;;;21.87;43.62;96218.53;5005874;28;20465;-68
2022/10/17 01:38:49;;;;;;;5.47;3.88;;;;;;;21.26;43.54;96131.72;4995273;28;20042;-68
2022/10/17 01:41:50;;;;;;;5.50;4.35;;;;;;;21.71;43.66;96201.94;4989382;28;20054;-68
2022/10/17 01:44:44;;;;;;;4.75;3.92;;;;;;;21.86;43.64;96227.16;4991393;28;20470;-67
2022/10/17 01:47:12;;;;;;;5.07;4.13;;;;;;;21.64;43.78;96221.34;5010508;28;20029;-66
2022/10/17 01:49:38;;;;;;;5.03;4.07;;;;;;;21.58;43.59;96191.38;5009378;28;20384;-64
2022/10/17 01:52:21;;;;;;;5.25;4.28;;;;;;;21.68;43.81;96221.91;4973610;28;20103;-69
2022/10/17 01:55:00;;;;;;;5.60;4.47;;;;;;;21.52;43.81;96198.69;4972862;28;20050;-69
2022/10/17 01:57:32;;;;;;;5.13;3.88;;;;;;;21.06;43.59;96123.47;5002781;28;20033;-64
2022/10/17 01:59:57;;;;;;;4.97;4.03;;;;;;;21.82;43.69;96237.47;5003675;28;20137;-67
2022/10/17 02:02:23;;;;;;;5.53;3.90;;;;;;;20.71;43.60;96069.50;5005280;28;20029;-65
2022/10/17 02:04:49;;;;;;;5.25;4.22;;;;;;;20.98;43.78;96132.44;4990157;28;20037;-66
2022/10/17 02:07:15;;;;;;;5.60;4.13;;;;;;;20.96;43.68;96126.00;5020459;28;20034;-64
2022/10/17 02:09:40;;;;;;;5.43;4.40;;;;;;;21.80;43.74;96239.91;5027639;28;20103;-63
2022/10/17 02:12:19;;;;;;;5.05;3.95;;;;;;;21.71;43.81;96234.56;5037404;28;20101;-62
2022/10/17 02:15:43;;;;;;;5.72;4.63;;;;;;;21.26;43.64;96169.75;5029771;28;20025;-66
2022/10/17 02:18:15;;;;;;;5.22;4.07;;;;;;;20.78;43.75;96096.31;4930850;28;20624;-67
2022/10/17 02:20:52;;;;;;;5.40;3.92;;;;;;;21.77;43.85;96251.72;4933020;28;20043;-66
2022/10/17 02:23:32;;;;;;;5.50;3.90;;;;;;;21.76;43.47;96250.22;4975895;28;20113;-65
2022/10/17 02:26:07;;;;;;;;;;;;;;;21.76;43.68;96244.78;5003110;28;20429;-65
2022/10/17 02:28:43;;;;;;;5.45;3.92;;;;;;;21.76;43.70;96245.53;5026114;28;20581;-65
2022/10/17 02:31:11;;;;;;;5.20;3.88;;;;;;;21.76;43.84;96255.66;5002715;28;20052;-69
2022/10/17 02:34:04;;;;;;;5.32;3.75;;;;;;;20.88;43.77;96128.34;5027643;28;20349;-64
2022/10/17 02:36:33;;;;;;;5.28;3.95;;;;;;;21.41;43.83;96219.44;5001156;28;20076;-64
2022/10/17 02:38:59;;;;;;;5.10;4.13;;;;;;;20.91;43.65;96138.25;5010748;28;20420;-64
2022/10/17 02:41:24;;;;;;;5.00;4.20;;;;;;;21.74;43.85;96275.16;5011106;28;20014;-60
2022/10/17 02:43:50;;;;;;;4.30;3.65;;;;;;;21.12;43.72;96170.50;4985547;28;20619;-61
2022/10/17 02:46:19;;;;;;;4.32;3.72;;;;;;;21.73;43.84;96283.78;5008100;28;20225;-60
2022/10/17 02:49:22;;;;;;;5.85;4.25;;;;;;;21.73;43.46;96272.91;5010422;28;20026;-63
2022/10/17 02:52:20;;;;;;;6.00;4.10;;;;;;;20.83;43.72;96141.78;4966433;28;20046;-69
2022/10/17 02:54:56;;;;;;;4.72;3.80;;;;;;;20.76;43.80;96125.84;5016949;28;20045;-65
2022/10/17 02:57:37;;;;;;;5.47;4.10;;;;;;;21.71;43.85;96276.09;5010161;28;20041;-66
2022/10/17 03:00:03;;;;;;;5.05;3.78;;;;;;;21.18;43.75;96206.66;5041025;28;20052;-68
2022/10/17 03:02:40;;;;;;;4.90;3.72;;;;;;;21.28;44.25;96227.09;5024072;28;20316;-69
2022/10/17 03:05:06;;;;;;;4.80;3.78;;;;;;;21.54;44.11;96266.16;5027871;28;20104;-69
2022/10/17 03:07:32;;;;;;;5.28;3.78;;;;;;;20.73;43.67;96138.41;5024140;28;20470;-69
2022/10/17 03:09:57;;;;;;;5.60;4.18;;;;;;;20.54;43.79;96109.13;5017681;28;20041;-69
2022/10/17 03:12:23;;;;;;;4.75;3.80;;;;;;;21.56;43.97;96280.75;5009279;28;20472;-69
2022/10/17 03:14:48;;;;;;;5.30;3.95;;;;;;;21.27;43.62;96233.75;5009186;28;20025;-69
2022/10/17 03:17:13;;;;;;;4.85;3.70;;;;;;;20.74;43.85;96141.88;5010086;28;20036;-64
2022/10/17 03:19:39;;;;;;;4.45;3.88;;;;;;;21.58;44.15;96289.22;5005313;28;20536;-66
2022/10/17 03:22:04;;;;;;;5.07;3.65;;;;;;;21.31;43.97;96242.44;5010652;28;20484;-65
2022/10/17 03:24:30;;;;;;;4.47;3.70;;;;;;;21.22;43.88;96228.94;5016337;28;20051;-67
2022/10/17 03:26:55;;;;;;;4.50;3.75;;;;;;;21.08;43.92;96202.50;5029283;28;20040;-68
2022/10/17 03:29:21;;;;;;;4.78;3.75;;;;;;;21.10;43.94;96205.50;5022959;28;20037;-69
2022/10/17 03:31:46;;;;;;;4.22;3.72;;;;;;;21.65;44.03;96293.53;5024364;28;20497;-69
2022/10/17 03:34:12;;;;;;;5.00;3.88;;;;;;;20.50;43.80;96113.97;5027179;28;20038;-70
2022/10/17 03:36:37;;;;;;;4.88;3.92;;;;;;;20.34;43.69;96100.81;5022034;28;20531;-66
2022/10/17 03:39:03;;;;;;;4.43;3.80;;;;;;;21.31;43.79;96263.44;5014009;28;20034;-68
2022/10/17 03:41:28;;;;;;;5.30;3.92;;;;;;;21.10;43.95;96229.19;5027650;28;20062;-68
2022/10/17 03:43:53;;;;;;;5.50;4.25;;;;;;;21.64;43.88;96292.00;5004360;28;20045;-67
2022/10/17 03:46:19;;;;;;;4.88;4.10;;;;;;;20.99;43.98;96205.31;5025552;28;20040;-63
2022/10/17 03:48:44;;;;;;;4.65;3.60;;;;;;;20.39;43.81;96110.28;5026546;28;20044;-67
2022/10/17 03:51:10;;;;;;;4.15;3.58;;;;;;;21.63;43.96;96301.41;5025950;28;20045;-63
2022/10/17 03:53:35;;;;;;;4.60;3.35;;;;;;;21.47;43.89;96277.38;5027129;28;20115;-64
2022/10/17 03:56:10;;;;;;;4.88;3.45;;;;;;;21.61;44.02;96309.25;5026160;28;20179;-66
2022/10/17 03:58:36;;;;;;;4.60;3.35;;;;;;;21.61;43.97;96309.25;5009143;28;20053;-66
2022/10/17 04:01:05;;;;;;;5.40;3.95;;;;;;;21.51;44.03;96295.00;5028101;28;20038;-69
2022/10/17 04:03:31;;;;;;;4.93;3.80;;;;;;;21.61;43.99;96309.25;5037730;28;20056;-66
2022/10/17 04:06:00;;;;;;;4.05;3.22;;;;;;;21.04;43.95;96217.47;5024145;28;20276;-67
2022/10/17 04:08:26;;;;;;;4.70;3.88;;;;;;;20.44;43.73;96132.09;5014335;28;20021;-65
2022/10/17 04:10:51;;;;;;;4.32;3.55;;;;;;;21.07;43.79;96244.44;5026086;28;20138;-64
2022/10/17 04:13:17;;;;;;;4.40;3.70;;;;;;;21.35;43.90;96291.94;5025683;28;20037;-66
2022/10/17 04:15:53;;;;;;;4.55;3.70;;;;;;;21.58;43.86;96316.41;5025799;28;20045;-62
2022/10/17 04:18:18;;;;;;;4.63;3.47;;;;;;;19.38;43.52;96027.72;5008975;28;20068;-62
2022/10/17 04:20:44;;;;;;;5.13;3.67;;;;;;;20.67;43.93;96178.25;5025280;28;20022;-60
2022/10/17 04:23:09;;;;;;;4.57;3.88;;;;;;;20.62;43.88;96178.09;5026411;28;20044;-67
2022/10/17 04:25:34;;;;;;;4.68;3.45;;;;;;;21.35;43.79;96296.63;5020140;28;20026;-64
2022/10/17 04:28:00;;;;;;;5.10;3.85;;;;;;;21.62;44.28;96321.63;5019570;28;20042;-59
2022/10/17 04:30:26;;;;;;;5.50;4.03;;;;;;;21.58;44.54;96337.38;5023774;28;20033;-60
2022/10/17 04:32:51;;;;;;;5.85;3.55;;;;;;;21.40;44.51;96295.97;5024435;28;20099;-62
2022/10/17 04:35:17;;;;;;;4.03;3.42;;;;;;;21.43;44.06;96295.78;5022635;28;20056;-61
2022/10/17 04:37:42;;;;;;;6.80;3.72;;;;;;;21.88;44.18;96320.63;5018598;28;20400;-63
2022/10/17 04:40:08;;;;;;;4.80;3.40;;;;;;;20.70;44.10;96144.00;5024087;28;20045;-63
2022/10/17 04:42:33;;;;;;;4.28;3.40;;;;;;;21.04;43.74;96168.59;5024374;28;20128;-57
2022/10/17 04:44:59;;;;;;;3.88;3.30;;;;;;;20.89;43.35;96118.94;5024622;28;20519;-62
2022/10/17 04:47:24;;;;;;;5.30;3.63;;;;;;;21.33;43.47;96184.94;5024848;28;20496;-57
2022/10/17 04:49:50;;;;;;;4.18;3.17;;;;;;;22.00;43.51;96286.97;5017390;28;20671;-60
2022/10/17 04:52:15;;;;;;;4.25;3.50;;;;;;;22.35;43.83;96334.84;5023982;28;20361;-63
2022/10/17 04:54:41;;;;;;;3.67;2.92;;;;;;;22.32;43.44;96308.56;5024184;28;20115;-64
2022/10/17 04:57:06;;;;;;;4.40;3.50;;;;;;;21.45;42.63;96138.47;4995956;28;20131;-61
2022/10/17 04:59:31;;;;;;;4.60;3.65;;;;;;;22.29;42.85;96282.31;5024972;28;20033;-62
2022/10/17 05:01:57;;;;;;;4.68;3.78;;;;;;;21.82;42.89;96223.88;5028505;28;20491;-61
2022/10/17 05:04:24;;;;;;;4.72;3.20;;;;;;;21.65;42.97;96201.09;5027906;28;20041;-60
2022/10/17 05:06:49;;;;;;;4.43;3.50;;;;;;;22.39;43.16;96327.25;5024136;28;20447;-59
2022/10/17 05:09:15;;;;;;;4.55;3.70;;;;;;;22.25;43.01;96265.41;5021245;28;20077;-58
2022/10/17 05:11:41;;;;;;;3.67;2.95;;;;;;;22.63;42.72;96344.19;5009746;28;20037;-58
2022/10/17 05:14:06;;;;;;;4.28;3.30;;;;;;;22.73;42.81;96349.06;5003684;28;20024;-61
2022/10/17 05:16:31;;;;;;;3.55;2.90;;;;;;;22.95;42.75;96350.16;5020794;28;20038;-57
2022/10/17 05:18:57;;;;;;;4.28;3.03;;;;;;;23.06;41.81;96328.53;5022203;28;20034;-61
2022/10/17 05:21:23;;;;;;;5.40;3.25;;;;;;;23.38;41.78;96354.72;4992768;28;20065;-58
2022/10/17 05:23:49;;;;;;;17.50;4.20;;;;;;;23.02;41.73;96311.63;5015761;28;20018;-58
2022/10/17 05:26:15;;;;;;;11.10;3.55;;;;;;;23.38;41.15;96365.63;5005011;28;20079;-59
2022/10/17 05:28:40;;;;;;;9.95;3.95;;;;;;;23.15;41.40;96325.69;5023715;28;20099;-61
2022/10/17 05:31:07;;;;;;;12.52;4.25;;;;;;;22.78;41.22;96252.31;5010110;28;20158;-58
2022/10/17 05:33:32;;;;;;;9.57;4.22;;;;;;;22.98;41.17;96267.47;5025738;28;20045;-66
2022/10/17 05:35:58;;;;;;;13.18;3.90;;;;;;;23.50;40.29;96329.09;5026694;28;20518;-60
2022/10/17 05:38:24;;;;;;;11.32;3.60;;;;;;;23.12;40.78;96288.47;5010042;28;20080;-61
2022/10/17 05:40:49;;;;;;;11.35;3.50;;;;;;;22.52;40.88;96207.91;5017557;28;20364;-60
2022/10/17 05:43:15;;;;;;;11.85;3.70;;;;;;;23.28;40.51;96317.16;5026893;28;20357;-58
2022/10/17 05:45:40;;;;;;;15.15;4.22;;;;;;;23.46;40.23;96350.34;5027223;28;20100;-60
2022/10/17 05:48:07;;;;;;;10.00;3.58;;;;;;;23.07;40.02;96267.34;5026415;28;20498;-57
2022/10/17 05:50:33;;;;;;;9.60;4.05;;;;;;;23.86;40.37;96373.66;5026716;28;20045;-58
2022/10/17 05:52:58;;;;;;;7.15;3.95;;;;;;;24.02;40.04;96381.28;5008662;28;20088;-57
2022/10/17 05:55:24;;;;;;;10.75;3.88;;;;;;;23.96;40.12;96383.19;5026784;28;20663;-58
2022/10/17 05:57:51;;;;;;;10.48;3.88;;;;;;;24.09;39.76;96386.31;5026815;28;20040;-58
2022/10/17 06:00:17;;;;;;;8.82;3.97;;;;;;;21.36;39.63;96027.19;5018607;28;20076;-59
2022/10/17 06:02:44;;;;;;;10.20;3.50;;;;;;;23.82;39.65;96377.09;5029208;28;20040;-57
2022/10/17 06:05:10;;;;;;;8.15;3.83;;;;;;;23.03;39.59;96269.53;5007491;28;20469;-59
2022/10/17 06:07:35;;;;;;;9.02;3.85;;;;;;;23.31;38.99;96281.50;5001011;28;20026;-58
2022/10/17 06:10:01;;;;;;;8.55;3.63;;;;;;;23.12;39.76;96255.78;4983777;28;20501;-60
2022/10/17 06:12:26;;;;;;;11.25;3.83;;;;;;;23.97;39.32;96373.75;5000539;28;20050;-59
2022/10/17 06:14:51;;;;;;;6.68;3.30;;;;;;;23.03;39.39;96261.38;5007079;28;20084;-60
2022/10/17 06:17:17;;;;;;;7.30;3.72;;;;;;;23.26;39.28;96265.84;5007389;28;20024;-62
2022/10/17 06:19:43;;;;;;;7.70;3.90;;;;;;;23.32;39.24;96263.19;5006421;28;20536;-61
2022/10/17 06:22:09;;;;;;;10.10;4.00;;;;;;;23.50;39.09;96290.91;5002822;28;20610;-58
2022/10/17 06:24:34;;;;;;;8.35;3.85;;;;;;;22.69;39.24;96189.81;4987092;28;20082;-60
2022/10/17 06:26:59;;;;;;;9.55;3.90;;;;;;;23.70;39.11;96310.00;5002897;28;20546;-60
2022/10/17 06:29:25;;;;;;;8.30;4.00;;;;;;;23.17;38.82;96263.25;5026555;28;20492;-59
2022/10/17 06:31:50;;;;;;;5.72;3.40;;;;;;;23.39;39.01;96335.16;5007954;28;20037;-58
2022/10/17 06:34:16;;;;;;;9.27;4.10;;;;;;;23.58;40.01;96411.97;5006539;28;20057;-60
2022/10/17 06:36:41;;;;;;;12.25;4.35;;;;;;;22.40;39.89;96249.81;4992200;28;20042;-59
2022/10/17 06:39:07;;;;;;;11.98;3.88;;;;;;;23.79;40.15;96432.59;5001257;28;20038;-60
2022/10/17 06:41:32;;;;;;;9.27;4.28;;;;;;;23.23;40.43;96377.78;4999605;28;20112;-57
2022/10/17 06:43:58;;;;;;;9.57;4.00;;;;;;;23.01;39.78;96331.91;5024692;28;20038;-57
2022/10/17 06:46:25;;;;;;;9.98;4.40;;;;;;;23.12;40.20;96392.03;5025952;28;20045;-61
2022/10/17 06:48:51;;;;;;;10.45;4.28;;;;;;;19.67;40.97;95912.13;5026335;28;20052;-59
2022/10/17 06:51:16;;;;;;;9.95;4.43;;;;;;;22.51;41.52;96369.72;5025266;28;20508;-60
2022/10/17 06:53:42;;;;;;;8.40;4.47;;;;;;;21.72;41.25;96244.22;5026067;28;20503;-59
2022/10/17 06:56:07;;;;;;;10.18;4.25;;;;;;;21.73;41.49;96251.16;5026946;28;20041;-61
2022/10/17 06:58:34;;;;;;;8.30;4.47;;;;;;;21.39;41.76;96240.88;5008059;28;20041;-58
2022/10/17 07:01:10;;;;;;;8.10;3.90;;;;;;;22.69;41.69;96429.44;5010287;28;20107;-61
2022/10/17 07:03:36;;;;;;;8.50;4.03;;;;;;;21.62;41.64;96278.88;5036467;28;20045;-59
2022/10/17 07:06:02;;;;;;;8.18;3.70;;;;;;;22.43;42.15;96402.06;5007494;28;20151;-60
2022/10/17 07:08:27;;;;;;;7.85;3.90;;;;;;;22.13;41.92;96361.63;5026493;28;20026;-61
2022/10/17 07:10:53;;;;;;;7.78;4.35;;;;;;;22.31;42.00;96410.47;5025767;28;20041;-61
2022/10/17 07:13:19;;;;;;;7.70;4.00;;;;;;;22.24;42.26;96405.41;5007629;28;20428;-61
2022/10/17 07:15:44;;;;;;;10.23;4.03;;;;;;;22.51;42.04;96429.63;5026112;28;20051;-61
2022/10/17 07:18:10;;;;;;;8.40;3.97;;;;;;;22.52;41.95;96442.03;5025354;28;20044;-58
2022/10/17 07:20:35;;;;;;;9.63;4.40;;;;;;;22.35;42.10;96411.03;5025818;28;20033;-60
2022/10/17 07:23:01;;;;;;;9.18;4.13;;;;;;;21.03;42.12;96227.59;5025223;28;20477;-60
2022/10/17 07:25:27;;;;;;;9.80;3.97;;;;;;;21.99;42.50;96367.81;5000929;28;20132;-59
2022/10/17 07:27:52;;;;;;;9.25;4.13;;;;;;;21.54;42.33;96315.06;5018852;28;20041;-60
2022/10/17 07:30:18;;;;;;;7.97;4.18;;;;;;;22.32;42.56;96439.19;5024855;28;20044;-60
2022/10/17 07:32:44;;;;;;;7.53;4.20;;;;;;;22.22;42.20;96424.16;5025059;28;20416;-60
2022/10/17 07:35:10;;;;;;;9.30;4.70;;;;;;;22.29;42.32;96434.69;5025629;28;20416;-60
2022/10/17 07:37:35;;;;;;;6.75;4.00;;;;;;;22.12;42.67;96422.72;5024756;28;20470;-60
2022/10/17 07:40:01;;;;;;;8.50;4.20;;;;;;;22.15;42.75;96424.53;5007460;28;20052;-60
2022/10/17 07:42:27;;;;;;;8.13;3.92;;;;;;;21.98;42.42;96409.84;5024708;28;20547;-60
2022/10/17 07:44:53;;;;;;;6.38;4.10;;;;;;;22.23;43.19;96469.22;5011884;28;20029;-60
2022/10/17 07:47:18;;;;;;;7.88;4.32;;;;;;;21.39;42.66;96319.69;5025569;28;20219;-60
2022/10/17 07:49:44;;;;;;;6.93;3.80;;;;;;;21.50;42.48;96347.84;5024619;28;20405;-59
2022/10/17 07:52:10;;;;;;;6.68;3.65;;;;;;;21.47;42.67;96339.88;5022866;28;20033;-58
2022/10/17 07:54:36;;;;;;;7.75;4.00;;;;;;;21.02;42.52;96263.38;4998348;28;20062;-60
2022/10/17 07:57:01;;;;;;;6.93;3.75;;;;;;;21.63;42.54;96350.34;5019509;28;20061;-60
2022/10/17 07:59:27;;;;;;;6.57;4.18;;;;;;;22.07;42.68;96442.41;5007733;28;20021;-61
2022/10/17 08:01:55;;;;;;;7.38;3.58;;;;;;;21.86;42.62;96398.47;5033493;28;20106;-59
2022/10/17 08:04:21;;;;;;;8.30;4.45;;;;;;;21.10;42.70;96286.97;5028928;28;20033;-60
2022/10/17 08:06:46;;;;;;;4.80;3.92;;;;;;;22.07;42.81;96445.13;5024101;28;20436;-58
2022/10/17 08:09:12;;;;;;;8.02;4.00;;;;;;;22.17;42.64;96441.13;5007312;28;20044;-59
2022/10/17 08:11:37;;;;;;;8.65;4.03;;;;;;;21.82;42.56;96403.34;5024343;28;20116;-61
2022/10/17 08:14:03;;;;;;;6.22;4.00;;;;;;;20.72;42.61;96223.00;5024707;28;20063;-60
2022/10/17 08:16:28;;;;;;;6.80;3.83;;;;;;;22.18;42.86;96434.47;5024345;28;20492;-60
2022/10/17 08:18:54;;;;;;;6.97;3.85;;;;;;;22.15;42.79;96429.19;5024791;28;20037;-60
2022/10/17 08:21:19;;;;;;;7.05;3.97;;;;;;;21.99;42.69;96411.34;5022376;28;20052;-60
2022/10/17 08:23:45;;;;;;;6.63;3.97;;;;;;;21.90;42.72;96388.16;5023549;28;20419;-59
2022/10/17 08:26:12;;;;;;;5.18;3.80;;;;;;;21.86;42.82;96384.88;5024876;28;20033;-59
2022/10/17 08:28:38;;;;;;;5.43;3.90;;;;;;;21.56;42.52;96342.53;5024373;28;20095;-60
2022/10/17 08:31:08;;;;;;;6.10;4.25;;;;;;;21.46;42.69;96311.19;5023755;28;20030;-60
2022/10/17 08:33:34;;;;;;;5.53;3.72;;;;;;;21.08;42.55;96256.81;5024062;28;20512;-58
2022/10/17 08:36:00;;;;;;;6.35;3.78;;;;;;;21.83;42.56;96377.66;5023582;28;20107;-58
2022/10/17 08:38:27;;;;;;;6.95;3.75;;;;;;;21.99;42.63;96400.47;5024878;28;20052;-56
2022/10/17 08:40:52;;;;;;;5.43;3.78;;;;;;;21.35;42.58;96302.81;5022298;28;20530;-60
2022/10/17 08:44:03;;;;;;;6.15;4.07;;;;;;;22.17;42.62;96419.34;5006204;28;20041;-57
2022/10/17 08:46:31;;;;;;;6.13;3.55;;;;;;;22.12;42.54;96425.44;5008845;28;20077;-62
2022/10/17 08:48:56;;;;;;;5.22;3.72;;;;;;;22.17;42.56;96430.22;4990372;28;20049;-61
2022/10/17 08:51:24;;;;;;;7.47;4.10;;;;;;;20.80;42.41;96213.28;4988772;28;20056;-57
2022/10/17 08:53:57;;;;;;;7.22;4.03;;;;;;;22.23;42.02;96431.13;4990254;28;20529;-55
2022/10/17 08:56:25;;;;;;;6.35;4.07;;;;;;;21.66;42.49;96338.53;5023290;28;20474;-59
2022/10/17 08:58:50;;;;;;;7.35;4.57;;;;;;;22.05;42.56;96401.31;5024036;28;20037;-56
2022/10/17 09:01:47;;;;;;;8.27;4.47;;;;;;;22.28;42.43;96429.72;5027525;28;20029;-61
2022/10/17 09:04:22;;;;;;;7.32;4.00;;;;;;;22.33;42.48;96435.28;5011551;28;20519;-59
2022/10/17 09:07:07;;;;;;;5.85;3.60;;;;;;;21.44;42.17;96278.28;5023202;28;20124;-59
2022/10/17 09:10:08;;;;;;;6.57;4.07;;;;;;;22.37;42.28;96419.47;4988647;28;20819;-61
2022/10/17 09:12:48;;;;;;;6.38;4.10;;;;;;;22.44;41.88;96419.13;5009426;28;20113;-57
2022/10/17 09:15:52;;;;;;;6.32;4.05;;;;;;;22.48;42.07;96420.44;5010183;28;20040;-57
2022/10/17 09:18:31;;;;;;;6.25;4.00;;;;;;;21.49;41.87;96274.94;4993797;28;20045;-61
2022/10/17 09:21:05;;;;;;;5.35;3.90;;;;;;;21.19;41.53;96202.72;5009308;28;20032;-61
2022/10/17 09:23:35;;;;;;;5.80;3.97;;;;;;;22.63;41.42;96420.41;5010940;28;20022;-61
2022/10/17 09:26:00;;;;;;;6.47;4.00;;;;;;;21.68;41.68;96270.84;5010681;28;20033;-58
2022/10/17 09:28:33;;;;;;;6.10;4.35;;;;;;;21.87;41.44;96315.66;5009769;28;20037;-58
2022/10/17 09:31:04;;;;;;;5.90;4.10;;;;;;;22.13;41.60;96364.34;5009694;28;20043;-59
2022/10/17 09:33:37;;;;;;;6.57;3.92;;;;;;;21.30;41.20;96230.09;5009645;28;20716;-57
2022/10/17 09:36:12;;;;;;;7.68;4.03;;;;;;;22.50;41.35;96395.47;4982718;28;20121;-59
2022/10/17 09:38:46;;;;;;;5.75;4.13;;;;;;;21.27;41.29;96209.31;4990725;28;20028;-59
2022/10/17 09:41:23;;;;;;;4.90;3.65;;;;;;;22.26;41.48;96348.56;4974325;28;20044;-57
2022/10/17 09:43:51;;;;;;;6.00;3.75;;;;;;;21.63;41.49;96257.91;4990032;28;20048;-56
2022/10/17 09:46:20;;;;;;;5.78;4.00;;;;;;;22.63;41.67;96412.25;4984429;28;20034;-61
2022/10/17 09:48:51;;;;;;;5.32;3.83;;;;;;;22.60;41.52;96415.91;5009316;28;20033;-60
2022/10/17 09:51:16;;;;;;;5.60;3.92;;;;;;;22.00;41.87;96320.38;4992540;28;20416;-57
2022/10/17 09:53:45;;;;;;;6.68;4.32;;;;;;;22.71;41.14;96421.56;5009158;28;20040;-61
2022/10/17 09:56:13;;;;;;;7.82;4.40;;;;;;;22.43;41.06;96379.50;4989265;28;20048;-57
2022/10/17 09:58:42;;;;;;;7.03;4.18;;;;;;;19.68;40.75;95952.31;5020761;28;21545;-58
2022/10/17 10:01:18;;;;;;;6.55;3.90;;;;;;;22.71;41.52;96416.13;5008168;28;20163;-58
2022/10/17 10:03:43;;;;;;;5.63;3.72;;;;;;;21.38;41.14;96203.31;5015512;28;20141;-59
2022/10/17 10:06:17;;;;;;;4.70;3.85;;;;;;;22.69;41.54;96392.09;5005347;28;20030;-60
2022/10/17 10:08:57;;;;;;;6.65;3.85;;;;;;;21.89;41.14;96280.59;5005793;28;20433;-55
2022/10/17 10:11:45;;;;;;;5.88;3.92;;;;;;;22.72;41.05;96395.81;5005842;28;20030;-59
2022/10/17 10:14:16;;;;;;;4.75;3.63;;;;;;;21.89;40.64;96253.41;5006416;28;20505;-60
2022/10/17 10:16:42;;;;;;;6.10;3.90;;;;;;;21.92;40.94;96258.66;5021030;28;20509;-60
2022/10/17 10:19:31;;;;;;;5.53;3.70;;;;;;;22.09;41.14;96295.81;4977337;28;20145;-62
2022/10/17 10:22:16;;;;;;;6.85;3.75;;;;;;;22.62;41.04;96357.06;4990642;28;20137;-58
2022/10/17 10:24:41;;;;;;;5.97;3.60;;;;;;;21.33;40.90;96182.97;5004047;28;20034;-61
2022/10/17 10:27:12;;;;;;;6.50;4.07;;;;;;;21.73;40.98;96207.66;5005015;28;20041;-60
2022/10/17 10:29:40;;;;;;;5.07;3.70;;;;;;;22.39;40.92;96351.75;4975469;28;20087;-58
2022/10/17 10:32:18;;;;;;;4.63;3.65;;;;;;;22.86;41.12;96378.72;5004046;28;20138;-61
2022/10/17 10:34:52;;;;;;;4.80;3.80;;;;;;;22.83;40.62;96374.22;5006036;28;20365;-60
2022/10/17 10:37:20;;;;;;;5.53;3.60;;;;;;;22.56;40.72;96328.25;5003886;28;20063;-61
2022/10/17 10:40:25;;;;;;;7.90;4.20;;;;;;;21.88;40.39;96224.72;5004313;28;20037;-62
2022/10/17 10:42:52;;;;;;;5.88;3.55;;;;;;;22.76;40.91;96352.81;4960833;28;20038;-57
2022/10/17 10:45:19;;;;;;;7.13;3.75;;;;;;;22.02;40.53;96230.91;4990714;28;20161;-59
2022/10/17 10:47:55;;;;;;;4.97;3.72;;;;;;;22.89;40.26;96362.91;5003897;28;20053;-61
2022/10/17 10:50:31;;;;;;;7.20;3.78;;;;;;;22.15;40.43;96244.97;5005226;28;20022;-60
2022/10/17 10:53:27;;;;;;;5.68;3.70;;;;;;;22.95;40.69;96354.88;5003799;28;20045;-61
2022/10/17 10:55:55;;;;;;;5.60;3.55;;;;;;;22.66;40.48;96311.34;4995186;28;188594;-62
2022/10/17 10:58:36;;;;;;;4.65;3.53;;;;;;;21.95;40.06;96203.31;4988906;28;20030;-58
2022/10/17 11:01:05;;;;;;;4.78;3.50;;;;;;;21.63;40.34;96143.75;5003573;28;20092;-61
2022/10/17 11:03:49;;;;;;;4.10;3.57;;;;;;;22.97;40.64;96347.72;5008509;28;20236;-61
2022/10/17 11:06:26;;;;;;;6.40;4.22;;;;;;;22.03;40.39;96199.75;4984444;28;20047;-56
2022/10/17 11:09:21;;;;;;;4.72;3.67;;;;;;;23.02;40.50;96349.78;5001521;28;20096;-60
2022/10/17 11:11:53;;;;;;;4.72;3.35;;;;;;;22.05;40.08;96200.03;4972697;28;20464;-58
2022/10/17 11:14:33;;;;;;;4.57;3.33;;;;;;;23.01;40.23;96331.91;4976204;28;20026;-58
2022/10/17 11:17:04;;;;;;;;;;;;;;;23.04;40.11;96346.56;4975026;28;20035;-60
2022/10/17 11:19:42;;;;;;;4.90;3.67;;;;;;;23.06;40.32;96339.44;4986516;28;19921;-59
2022/10/17 11:22:15;;;;;;;4.10;3.15;;;;;;;22.68;40.12;96297.25;4997546;28;20092;-56
2022/10/17 11:25:18;;;;;;;4.30;3.40;;;;;;;21.94;39.81;96156.34;4997814;28;20038;-59
2022/10/17 11:27:43;;;;;;;5.25;3.55;;;;;;;22.92;39.89;96310.22;4989062;28;20509;-61
2022/10/17 11:30:12;;;;;;;4.82;3.38;;;;;;;23.00;40.12;96314.09;5001161;28;20031;-57
2022/10/17 11:32:41;;;;;;;4.40;3.37;;;;;;;22.93;40.19;96284.50;4985902;28;20030;-60
2022/10/17 11:35:22;;;;;;;4.97;3.40;;;;;;;22.98;40.11;96321.22;5004439;28;20049;-57
2022/10/17 11:37:52;;;;;;;4.63;3.30;;;;;;;22.36;40.05;96199.50;4987545;28;20035;-57
2022/10/17 11:40:30;;;;;;;4.65;3.30;;;;;;;22.67;40.09;96235.84;4982071;28;20096;-59
2022/10/17 11:43:00;;;;;;;4.18;3.00;;;;;;;22.90;39.84;96276.53;4994262;28;20121;-59
2022/10/17 11:45:28;;;;;;;4.90;3.30;;;;;;;23.25;39.99;96324.31;4975452;28;20048;-56
2022/10/17 11:48:11;;;;;;;4.57;3.33;;;;;;;23.09;40.23;96313.97;5003705;28;20030;-58